This is the latest recevied weather packets stored in our database for station/object W9GWP. If no packets are shown the sender has not sent any weather packets the latest 10 day(s).
| Time | Temp. | Humidity | Pressure | Rain* | Wind** | Luminosity | Snow |
|---|---|---|---|---|---|---|---|
| 1777936239 | 23.33° C | 44% | 1026.3 hPa | 0 mm | - | 86 W/m² | - |
| 1777935337 | 23.33° C | 44% | 1026.5 hPa | 0 mm | - | 66 W/m² | - |
| 1777934434 | 25.56° C | 37% | 1026.6 hPa | 0 mm | - | 174 W/m² | - |
| 1777933529 | 26.11° C | 35% | 1026.4 hPa | 0 mm | - | 306 W/m² | - |
| 1777932626 | 26.11° C | 34% | 1026.6 hPa | 0 mm | - | 102 W/m² | - |
| 1777931722 | 26.67° C | 34% | 1026.6 hPa | 0 mm | - | 404 W/m² | - |
| 1777930818 | 26.11° C | 33% | 1026.7 hPa | 0 mm | - | 147 W/m² | - |
| 1777929913 | 26.11° C | 32% | 1026.8 hPa | 0 mm | - | 478 W/m² | - |
| 1777929011 | 26.11° C | 31% | 1027 hPa | 0 mm | - | 144 W/m² | - |
| 1777928108 | 26.67° C | 30% | 1027.1 hPa | 0 mm | - | 563 W/m² | - |
| 1777927208 | 26.11° C | 30% | 1027.4 hPa | 0 mm | - | 584 W/m² | - |
| 1777926304 | 26.11° C | 30% | 1027.3 hPa | 0 mm | - | 563 W/m² | - |
| 1777925402 | 25.56° C | 31% | 1027.6 hPa | 0 mm | - | 472 W/m² | - |
| 1777924496 | 25.56° C | 31% | 1027.9 hPa | 0 mm | - | 634 W/m² | - |
| 1777923597 | 25.56° C | 31% | 1028.2 hPa | 0 mm | - | 646 W/m² | - |
| 1777922696 | 25.56° C | 29% | 1028.3 hPa | 0 mm | - | 659 W/m² | - |
| 1777921793 | 25° C | 32% | 1028.3 hPa | 0 mm | - | 548 W/m² | - |
| 1777920889 | 25° C | 32% | 1028.1 hPa | 0 mm | - | 699 W/m² | - |
| 1777919988 | 25° C | 33% | 1028.4 hPa | 0 mm | - | 117 W/m² | - |
| 1777919086 | 24.44° C | 33% | 1028.5 hPa | 0 mm | - | 612 W/m² | - |
| 1777918185 | 24.44° C | 33% | 1028.6 hPa | 0 mm | - | 593 W/m² | - |
| 1777917283 | 23.89° C | 33% | 1028.6 hPa | 0 mm | - | 719 W/m² | - |
| 1777916382 | 23.89° C | 34% | 1028.8 hPa | 0 mm | - | 676 W/m² | - |
| 1777915477 | 23.33° C | 36% | 1029.3 hPa | 0 mm | - | 659 W/m² | - |
| 1777914574 | 23.33° C | 34% | 1029.6 hPa | 0 mm | - | 669 W/m² | - |
* Rain latest hour (hover to see other rain measurements)
** Current wind speed in m/s (hover to see current wind gust speed)